Time;durP1;ratioP1;P1;durP2;ratioP2;P2;SDS_P1;SDS_P2;PMS_P1;PMS_P2;Temp;Humidity;BMP_temperature;BMP_pressure;BME280_temperature;BME280_humidity;BME280_pressure;Samples;Min_cycle;Max_cycle;Signal;HPM_P1;HPM_P2
2021/03/02 00:01:05;;;;;;;48.83;35.53;;;;;;;5.82;69.30;103168.28;5078438;28;20226;-70
2021/03/02 00:03:33;;;;;;;47.53;33.83;;;;;;;5.58;70.05;103170.09;5082173;28;20415;-70
2021/03/02 00:05:59;;;;;;;47.47;35.67;;;;;;;5.74;69.41;103160.00;5081994;28;20414;-73
2021/03/02 00:08:26;;;;;;;43.20;32.53;;;;;;;5.70;69.46;103158.00;5082925;28;20395;-73
2021/03/02 00:10:52;;;;;;;52.30;36.90;;;;;;;5.77;69.50;103156.72;5081795;28;20505;-73
2021/03/02 00:13:17;;;;;;;46.33;33.90;;;;;;;5.52;69.91;103161.88;5082020;28;20784;-76
2021/03/02 00:15:42;;;;;;;56.17;34.03;;;;;;;5.86;68.92;103164.22;5088914;28;20165;-74
2021/03/02 00:18:12;;;;;;;48.33;36.20;;;;;;;5.59;69.30;103164.13;5093327;28;20168;-74
2021/03/02 00:20:38;;;;;;;52.17;38.33;;;;;;;5.53;69.77;103164.59;5091787;28;20165;-75
2021/03/02 00:23:10;;;;;;;55.60;38.50;;;;;;;5.79;69.13;103162.00;5098063;28;20466;-76
2021/03/02 00:25:37;;;;;;;43.00;31.70;;;;;;;5.73;69.02;103157.31;5087256;28;20466;-74
2021/03/02 00:28:06;;;;;;;43.50;32.00;;;;;;;5.63;68.36;103154.88;5083210;28;20521;-76
2021/03/02 00:30:32;;;;;;;57.60;36.63;;;;;;;5.68;68.53;103158.66;5081956;28;20419;-74
2021/03/02 00:32:59;;;;;;;49.97;33.00;;;;;;;5.66;68.79;103155.09;5082227;28;20485;-75
2021/03/02 00:35:24;;;;;;;51.77;35.97;;;;;;;5.69;68.09;103157.88;5082449;28;20465;-73
2021/03/02 00:37:49;;;;;;;11.47;9.23;;;;;;;15.00;54.33;103118.34;5082912;28;20419;-66
2021/03/02 00:40:16;;;;;;;43.90;30.87;;;;;;;12.29;46.92;103127.19;5090195;28;20206;-74
2021/03/02 00:42:41;;;;;;;37.73;29.63;;;;;;;8.33;56.95;103138.13;5093085;28;20161;-74
2021/03/02 00:45:07;;;;;;;37.30;27.17;;;;;;;7.12;61.77;103144.75;5088358;28;20418;-73
2021/03/02 00:47:32;;;;;;;40.00;31.03;;;;;;;6.27;64.60;103148.00;5082549;28;20177;-74
2021/03/02 00:49:58;;;;;;;44.60;30.67;;;;;;;5.85;65.87;103141.72;5085328;28;20429;-73
2021/03/02 00:52:23;;;;;;;46.13;35.17;;;;;;;5.90;66.43;103138.63;5081630;28;20204;-74
2021/03/02 00:54:48;;;;;;;50.13;39.30;;;;;;;5.99;65.81;103145.25;5081501;28;20173;-73
2021/03/02 00:57:13;;;;;;;43.83;31.53;;;;;;;6.08;66.09;103145.88;5082555;28;20435;-74
2021/03/02 00:59:39;;;;;;;47.77;33.53;;;;;;;5.87;66.47;103138.44;5081765;28;20169;-73
2021/03/02 01:02:04;;;;;;;48.23;36.27;;;;;;;5.65;67.84;103138.66;5081308;28;20231;-74
2021/03/02 01:04:29;;;;;;;48.23;34.93;;;;;;;5.54;67.80;103137.03;5081685;28;20255;-73
2021/03/02 01:06:55;;;;;;;46.57;36.40;;;;;;;5.52;68.04;103131.75;5081099;28;20496;-72
2021/03/02 01:09:20;;;;;;;51.17;37.73;;;;;;;5.45;67.69;103131.22;5081257;28;20535;-73
2021/03/02 01:11:47;;;;;;;51.80;37.27;;;;;;;5.36;69.28;103134.97;5081261;28;20264;-74
2021/03/02 01:14:12;;;;;;;41.30;31.10;;;;;;;5.65;68.17;103127.41;5079627;28;20240;-74
2021/03/02 01:16:38;;;;;;;43.10;32.03;;;;;;;5.79;67.04;103123.16;5080898;28;20411;-74
2021/03/02 01:19:03;;;;;;;53.67;37.90;;;;;;;5.71;68.39;103122.63;5080942;28;20176;-74
2021/03/02 01:21:28;;;;;;;51.50;35.70;;;;;;;5.66;68.09;103122.34;5080709;28;20172;-73
2021/03/02 01:23:54;;;;;;;72.10;48.73;;;;;;;5.60;68.57;103126.19;5080678;28;20169;-74
2021/03/02 01:26:19;;;;;;;64.47;44.07;;;;;;;5.67;68.05;103121.56;5080620;28;20244;-76
2021/03/02 01:28:44;;;;;;;54.60;38.37;;;;;;;5.40;68.43;103116.28;5080602;28;20245;-74
2021/03/02 01:31:09;;;;;;;51.53;33.80;;;;;;;5.97;66.54;103124.41;5080907;28;20226;-75
2021/03/02 01:33:35;;;;;;;44.23;30.87;;;;;;;5.74;67.26;103122.88;5080769;28;20185;-73
2021/03/02 01:36:00;;;;;;;48.00;34.53;;;;;;;5.54;66.99;103119.81;5080589;28;20222;-74
2021/03/02 01:38:25;;;;;;;43.07;31.60;;;;;;;5.49;67.69;103117.69;5080752;28;20527;-73
2021/03/02 01:40:51;;;;;;;36.97;26.27;;;;;;;5.86;67.18;103115.03;5080609;28;20176;-75
2021/03/02 01:43:16;;;;;;;33.73;26.20;;;;;;;6.12;66.07;103110.75;5081599;28;20177;-75
2021/03/02 01:45:42;;;;;;;35.00;26.97;;;;;;;5.59;67.75;103111.44;5080985;28;20203;-74
2021/03/02 01:48:08;;;;;;;34.93;26.33;;;;;;;5.51;68.12;103113.53;5080238;28;20172;-74
2021/03/02 01:50:33;;;;;;;42.00;29.80;;;;;;;5.50;67.77;103117.78;5079991;28;20169;-74
2021/03/02 01:52:58;;;;;;;34.23;25.90;;;;;;;5.53;68.02;103119.69;5080725;28;20670;-75
2021/03/02 01:55:24;;;;;;;34.10;25.70;;;;;;;5.85;66.76;103111.53;5080133;28;20530;-74
2021/03/02 01:57:49;;;;;;;37.63;26.90;;;;;;;5.29;68.39;103112.06;5080055;28;20255;-75
2021/03/02 02:00:24;;;;;;;42.20;26.37;;;;;;;5.73;67.54;103109.00;5079670;28;20248;-73
2021/03/02 02:03:14;;;;;;;34.40;25.73;;;;;;;5.50;67.43;103111.75;5079986;28;20183;-74
2021/03/02 02:05:47;;;;;;;36.30;24.10;;;;;;;5.12;68.61;103117.75;5080096;28;20413;-73
2021/03/02 02:08:14;;;;;;;35.47;25.47;;;;;;;5.37;67.76;103125.50;5079416;28;20411;-74
2021/03/02 02:10:57;;;;;;;33.93;24.10;;;;;;;4.63;70.63;103122.91;5079677;28;20415;-74
2021/03/02 02:13:33;;;;;;;35.50;24.33;;;;;;;4.99;69.37;103122.03;5079820;28;20465;-74
2021/03/02 02:16:01;;;;;;;37.07;24.70;;;;;;;5.18;67.99;103113.91;5079066;28;20418;-74
2021/03/02 02:18:33;;;;;;;36.27;24.07;;;;;;;4.93;69.23;103116.44;5079109;28;20411;-75
2021/03/02 02:21:03;;;;;;;35.30;24.67;;;;;;;5.27;68.60;103112.75;5079637;28;20415;-74
2021/03/02 02:23:34;;;;;;;36.70;27.37;;;;;;;4.83;68.71;103119.13;5079765;28;20407;-74
2021/03/02 02:26:37;;;;;;;34.37;26.10;;;;;;;4.84;69.17;103116.69;5079146;28;20699;-73
2021/03/02 02:29:03;;;;;;;34.90;25.50;;;;;;;4.95;68.25;103107.09;5079179;28;20510;-72
2021/03/02 02:31:29;;;;;;;48.07;26.40;;;;;;;5.01;67.63;103111.81;5079218;28;20546;-72
2021/03/02 02:33:55;;;;;;;36.90;25.57;;;;;;;4.92;68.63;103114.63;5078728;28;20185;-72
2021/03/02 02:36:20;;;;;;;37.83;26.70;;;;;;;5.09;67.93;103112.31;5078967;28;20433;-73
2021/03/02 02:38:55;;;;;;;42.97;26.23;;;;;;;5.00;67.91;103112.59;5080044;28;20165;-73
2021/03/02 02:41:21;;;;;;;42.33;27.43;;;;;;;4.87;69.30;103116.91;5079302;28;20191;-74
2021/03/02 02:43:51;;;;;;;56.90;28.43;;;;;;;4.88;68.79;103107.44;5079219;28;20544;-73
2021/03/02 02:46:17;;;;;;;67.50;29.77;;;;;;;4.77;69.70;103110.97;5079139;28;20415;-74
2021/03/02 02:48:47;;;;;;;58.57;29.30;;;;;;;4.48;70.53;103118.41;5079324;28;20439;-73
2021/03/02 02:51:13;;;;;;;69.87;29.70;;;;;;;4.67;71.19;103122.31;5078616;28;20414;-74
2021/03/02 02:53:39;;;;;;;75.37;32.53;;;;;;;4.61;70.82;103122.75;5081137;28;20415;-75
2021/03/02 02:56:05;;;;;;;55.33;29.27;;;;;;;4.85;69.74;103115.88;5083874;28;20161;-74
2021/03/02 02:58:41;;;;;;;61.80;30.43;;;;;;;4.76;70.07;103116.91;5081638;28;20438;-72
2021/03/02 03:01:07;;;;;;;67.83;29.10;;;;;;;4.67;69.84;103110.28;5078880;28;20426;-73
2021/03/02 03:03:35;;;;;;;104.33;32.13;;;;;;;4.58;69.95;103121.66;5078201;28;20439;-73
2021/03/02 03:06:04;;;;;;;212.80;36.97;;;;;;;4.54;70.44;103113.66;5079042;28;20419;-73
2021/03/02 03:08:32;;;;;;;157.53;34.07;;;;;;;4.58;70.05;103116.50;5078724;28;20473;-74
2021/03/02 03:10:58;;;;;;;184.87;36.90;;;;;;;4.47;70.95;103123.44;5078554;28;20429;-72
2021/03/02 03:13:26;;;;;;;166.30;37.67;;;;;;;4.49;70.78;103124.44;5078559;28;20512;-73
2021/03/02 03:15:55;;;;;;;152.60;34.77;;;;;;;4.58;70.91;103125.13;5079043;28;20494;-74
2021/03/02 03:18:23;;;;;;;248.87;39.97;;;;;;;4.86;69.39;103127.13;5078080;28;20502;-73
2021/03/02 03:20:52;;;;;;;200.27;36.17;;;;;;;4.65;70.39;103127.34;5077777;28;20411;-73
2021/03/02 03:23:18;;;;;;;188.50;36.87;;;;;;;4.55;71.07;103122.31;5078546;28;20504;-74
2021/03/02 03:25:44;;;;;;;195.03;36.20;;;;;;;4.71;71.32;103114.88;5077682;28;20455;-74
2021/03/02 03:28:12;;;;;;;164.97;37.93;;;;;;;4.78;70.47;103116.22;5078114;28;20450;-73
2021/03/02 03:30:38;;;;;;;198.57;39.77;;;;;;;4.60;70.62;103122.66;5078392;28;20557;-73
2021/03/02 03:33:05;;;;;;;234.63;38.80;;;;;;;4.50;70.56;103118.50;5061006;28;20459;-73
2021/03/02 03:35:31;;;;;;;248.00;36.23;;;;;;;4.36;70.35;103118.38;5077890;28;20203;-73
2021/03/02 03:37:57;;;;;;;142.10;35.67;;;;;;;4.31;71.55;103124.91;5077277;28;20415;-74
2021/03/02 03:40:22;;;;;;;278.07;38.77;;;;;;;4.38;70.98;103114.25;5078371;28;20457;-73
2021/03/02 03:42:47;;;;;;;217.80;36.07;;;;;;;4.38;70.74;103114.25;5077974;28;20462;-73
2021/03/02 03:45:13;;;;;;;172.63;35.20;;;;;;;4.11;71.17;103112.19;5078503;28;20172;-73
2021/03/02 03:47:39;;;;;;;155.10;36.33;;;;;;;4.15;71.58;103114.22;5078424;28;20173;-74
2021/03/02 03:50:06;;;;;;;125.10;35.90;;;;;;;4.02;71.87;103122.75;5079026;28;20399;-75
2021/03/02 03:52:33;;;;;;;332.87;42.03;;;;;;;3.61;72.12;103123.06;5078154;28;20200;-73
2021/03/02 03:54:59;;;;;;;218.20;37.33;;;;;;;3.76;73.13;103125.94;5078316;28;20909;-74
2021/03/02 03:57:25;;;;;;;292.67;43.10;;;;;;;3.97;71.79;103114.66;5077868;28;20407;-74
2021/03/02 03:59:51;;;;;;;160.60;37.90;;;;;;;3.84;72.05;103117.09;5078211;28;20418;-73
2021/03/02 04:02:17;;;;;;;259.60;38.97;;;;;;;3.40;73.57;103112.91;5077545;28;20217;-75
2021/03/02 04:04:43;;;;;;;203.90;35.10;;;;;;;3.61;72.54;103117.91;5078112;28;20418;-74
2021/03/02 04:07:09;;;;;;;91.57;32.13;;;;;;;4.06;72.83;103104.13;5077656;28;20447;-74
2021/03/02 04:09:35;;;;;;;232.47;33.27;;;;;;;3.97;72.06;103114.66;5077388;28;20169;-73
2021/03/02 04:12:00;;;;;;;251.83;37.23;;;;;;;3.77;72.03;103114.84;5078433;28;20178;-73
2021/03/02 04:14:30;;;;;;;183.10;34.00;;;;;;;3.80;72.30;103109.91;5077405;28;20471;-73
2021/03/02 04:16:56;;;;;;;289.63;34.17;;;;;;;3.65;71.92;103114.78;5078283;28;20530;-72
2021/03/02 04:19:21;;;;;;;173.57;33.70;;;;;;;3.90;71.72;103108.91;5077850;28;20407;-73
2021/03/02 04:21:46;;;;;;;179.97;32.43;;;;;;;3.54;72.68;103111.41;5077077;28;20165;-73
2021/03/02 04:24:12;;;;;;;164.47;31.63;;;;;;;3.59;73.15;103115.22;5077828;28;20424;-73
2021/03/02 04:26:37;;;;;;;186.23;33.87;;;;;;;3.81;71.93;103112.59;5077942;28;20292;-74
2021/03/02 04:29:02;;;;;;;172.83;31.87;;;;;;;3.77;71.69;103114.84;5077919;28;20170;-74
2021/03/02 04:31:28;;;;;;;240.30;33.43;;;;;;;4.17;70.61;103103.22;5077945;28;22111;-73
2021/03/02 04:33:53;;;;;;;303.50;37.57;;;;;;;4.05;71.69;103108.38;5077710;28;20187;-75
2021/03/02 04:36:18;;;;;;;255.37;36.00;;;;;;;4.13;71.68;103108.06;5077850;28;20268;-73
2021/03/02 04:38:44;;;;;;;358.77;37.27;;;;;;;3.50;71.86;103105.09;5078342;28;20441;-75
2021/03/02 04:41:09;;;;;;;227.03;33.80;;;;;;;3.96;72.17;103112.84;5077733;28;20498;-73
2021/03/02 04:43:34;;;;;;;274.50;37.57;;;;;;;3.47;72.09;103106.56;5077778;28;20192;-73
2021/03/02 04:46:00;;;;;;;139.90;35.50;;;;;;;3.83;72.43;103110.13;5078278;28;20473;-73
2021/03/02 04:48:25;;;;;;;537.10;49.63;;;;;;;3.10;73.76;103106.25;5080024;28;20173;-73
2021/03/02 04:50:51;;;;;;;256.20;37.40;;;;;;;3.56;73.15;103103.75;5081422;28;20172;-73
2021/03/02 04:53:16;;;;;;;281.90;37.20;;;;;;;3.81;72.42;103104.84;5081904;28;20258;-73
2021/03/02 04:55:41;;;;;;;259.10;37.37;;;;;;;3.92;70.72;103097.91;5089788;28;20164;-74
2021/03/02 04:58:07;;;;;;;146.00;33.17;;;;;;;3.70;72.51;103103.16;5083128;28;20535;-73
2021/03/02 05:00:32;;;;;;;183.77;31.60;;;;;;;3.84;72.60;103112.84;5081592;28;20204;-73
2021/03/02 05:02:57;;;;;;;329.00;36.80;;;;;;;3.86;71.96;103115.53;5081059;28;20461;-74
2021/03/02 05:05:23;;;;;;;238.10;33.77;;;;;;;4.00;71.38;103107.13;5081114;28;20502;-72
2021/03/02 05:07:48;;;;;;;291.43;34.57;;;;;;;4.05;71.15;103107.50;5081528;28;20173;-72
2021/03/02 05:10:14;;;;;;;377.77;39.13;;;;;;;3.99;71.68;103101.84;5081058;28;20291;-73
2021/03/02 05:12:39;;;;;;;214.80;34.80;;;;;;;3.83;70.87;103105.88;5080949;28;20284;-73
2021/03/02 05:15:05;;;;;;;362.23;37.23;;;;;;;3.98;71.03;103107.81;5081396;28;20173;-72
2021/03/02 05:17:31;;;;;;;236.17;33.30;;;;;;;2.84;73.17;103113.75;5081045;28;20492;-76
2021/03/02 05:19:56;;;;;;;370.07;39.43;;;;;;;2.77;75.31;103110.56;5081262;28;20490;-75
2021/03/02 05:22:21;;;;;;;157.27;32.90;;;;;;;3.96;72.31;103110.25;5081063;28;20188;-74
2021/03/02 05:24:46;;;;;;;300.47;39.63;;;;;;;3.40;72.92;103114.56;5081133;28;20184;-73
2021/03/02 05:27:12;;;;;;;303.53;36.33;;;;;;;3.05;74.36;103117.91;5080947;28;20187;-74
2021/03/02 05:29:37;;;;;;;72.97;31.07;;;;;;;3.63;73.98;103113.78;5081309;28;20184;-72
2021/03/02 05:32:04;;;;;;;324.13;39.47;;;;;;;3.76;71.78;103116.53;5080673;28;20220;-73
2021/03/02 05:34:29;;;;;;;180.47;35.37;;;;;;;3.38;72.89;103111.88;5080727;28;20453;-73
2021/03/02 05:36:54;;;;;;;220.43;36.47;;;;;;;3.39;73.32;103110.22;5081185;28;20411;-75
2021/03/02 05:39:20;;;;;;;137.60;34.87;;;;;;;3.48;73.88;103116.09;5080626;28;20177;-73
2021/03/02 05:41:45;;;;;;;341.77;44.67;;;;;;;3.17;74.40;103116.28;5080361;28;20176;-73
2021/03/02 05:44:12;;;;;;;156.33;36.77;;;;;;;3.04;74.96;103111.84;5081096;28;20169;-72
2021/03/02 05:46:38;;;;;;;178.33;36.40;;;;;;;3.59;73.80;103110.06;5080407;28;20466;-73
2021/03/02 05:49:04;;;;;;;272.77;37.60;;;;;;;3.62;73.25;103110.28;5080441;28;20422;-73
2021/03/02 05:51:29;;;;;;;121.03;36.80;;;;;;;3.83;71.63;103111.03;5079802;28;20434;-74
2021/03/02 05:53:55;;;;;;;138.47;34.40;;;;;;;3.84;72.30;103122.25;5079603;28;20412;-73
2021/03/02 05:56:21;;;;;;;154.47;37.10;;;;;;;3.10;73.52;103124.28;5079622;28;20184;-73
2021/03/02 05:58:46;;;;;;;166.17;37.27;;;;;;;3.20;74.08;103122.56;5080052;28;20804;-74
2021/03/02 06:01:11;;;;;;;203.80;36.77;;;;;;;3.41;74.27;103121.53;5079066;28;20558;-74
2021/03/02 06:03:37;;;;;;;111.87;35.63;;;;;;;3.92;71.83;103115.09;5079471;28;20546;-74
2021/03/02 06:06:05;;;;;;;181.87;38.47;;;;;;;3.22;73.36;103120.13;5080477;28;20226;-73
2021/03/02 06:08:31;;;;;;;102.70;35.50;;;;;;;3.65;74.16;103122.53;5079991;28;20185;-73
2021/03/02 06:10:56;;;;;;;324.33;43.20;;;;;;;3.15;74.36;103125.56;5079745;28;20443;-74
2021/03/02 06:13:26;;;;;;;283.90;40.50;;;;;;;3.88;71.49;103120.03;5079635;28;20196;-73
2021/03/02 06:15:56;;;;;;;261.10;39.20;;;;;;;4.03;70.68;103120.28;5079726;28;20176;-73
2021/03/02 06:18:23;;;;;;;244.27;38.27;;;;;;;4.04;71.08;103121.16;5079654;28;20730;-73
2021/03/02 06:20:49;;;;;;;169.57;36.00;;;;;;;4.00;70.92;103114.88;5079404;28;20445;-73
2021/03/02 06:23:30;;;;;;;215.93;35.20;;;;;;;4.31;69.87;103116.25;5079586;28;20419;-74
2021/03/02 06:26:14;;;;;;;193.23;34.87;;;;;;;3.98;70.55;103110.41;5080762;28;20458;-74
2021/03/02 06:28:41;;;;;;;154.77;31.17;;;;;;;3.68;70.01;103113.34;5079554;28;20419;-73
2021/03/02 06:31:07;;;;;;;189.13;31.80;;;;;;;3.95;70.00;103117.88;5079547;28;20502;-74
2021/03/02 06:33:33;;;;;;;161.93;29.40;;;;;;;3.94;69.10;103113.50;5078802;28;20466;-73
2021/03/02 06:35:59;;;;;;;193.37;31.50;;;;;;;3.80;70.37;103117.63;5079864;28;20411;-74
2021/03/02 06:38:30;;;;;;;213.80;29.13;;;;;;;4.08;69.21;103112.88;5079257;28;20411;-72
2021/03/02 06:40:55;;;;;;;132.10;28.20;;;;;;;3.89;69.15;103118.34;5081101;28;20164;-74
2021/03/02 06:43:36;;;;;;;189.10;30.50;;;;;;;3.93;69.41;103115.19;5079662;28;20495;-73
2021/03/02 06:46:03;;;;;;;174.00;30.97;;;;;;;3.89;69.30;103118.34;5079301;28;20173;-73
2021/03/02 06:48:30;;;;;;;203.70;32.07;;;;;;;4.13;67.87;103120.97;5080508;28;20494;-73
2021/03/02 06:50:55;;;;;;;175.60;32.07;;;;;;;4.15;69.12;103114.22;5079740;28;20828;-73
2021/03/02 06:53:21;;;;;;;155.33;30.23;;;;;;;4.07;69.34;103112.75;5086730;28;20508;-73
2021/03/02 06:55:46;;;;;;;118.47;28.93;;;;;;;4.31;68.43;103114.56;5090501;28;20173;-73
2021/03/02 06:58:19;;;;;;;93.17;27.50;;;;;;;4.31;69.64;103119.72;5088593;28;20173;-74
2021/03/02 07:00:51;;;;;;;111.97;29.00;;;;;;;3.80;69.41;103127.97;5085938;28;20597;-73
2021/03/02 07:03:31;;;;;;;92.37;31.20;;;;;;;4.08;68.46;103128.34;5085396;28;20460;-74
2021/03/02 07:06:02;;;;;;;119.43;29.40;;;;;;;4.37;69.28;103124.44;5081394;28;20446;-72
2021/03/02 07:08:27;;;;;;;132.33;29.50;;;;;;;4.37;67.66;103121.84;5079369;28;20431;-72
2021/03/02 07:10:53;;;;;;;75.80;27.80;;;;;;;4.65;66.93;103124.78;5079233;28;20765;-74
2021/03/02 07:13:20;;;;;;;98.77;30.30;;;;;;;4.66;66.31;103118.81;5080276;28;20208;-75
2021/03/02 07:15:46;;;;;;;82.17;30.30;;;;;;;4.49;67.05;103121.88;5088166;28;20188;-73
2021/03/02 07:18:15;;;;;;;107.80;32.27;;;;;;;5.04;65.79;103115.47;5090249;28;20434;-74
2021/03/02 07:20:48;;;;;;;77.50;30.67;;;;;;;4.91;65.83;103122.28;5090036;28;20653;-73
2021/03/02 07:23:16;;;;;;;80.60;31.17;;;;;;;4.80;65.92;103122.38;5082372;28;20404;-73
2021/03/02 07:25:43;;;;;;;162.37;34.33;;;;;;;4.81;65.83;103115.56;5079886;28;20459;-73
2021/03/02 07:28:10;;;;;;;167.63;33.80;;;;;;;4.76;65.28;103117.78;5078635;28;20681;-74
2021/03/02 07:30:36;;;;;;;93.73;32.23;;;;;;;5.20;64.18;103108.81;5079819;28;20412;-74
2021/03/02 07:33:02;;;;;;;65.57;31.53;;;;;;;5.60;62.10;103124.50;5079652;28;20840;-74
2021/03/02 07:35:28;;;;;;;83.57;32.00;;;;;;;5.81;61.55;103113.84;5078629;28;20160;-75
2021/03/02 07:38:10;;;;;;;69.73;32.07;;;;;;;5.88;61.77;103116.03;5078119;28;20410;-74
2021/03/02 07:40:42;;;;;;;61.43;30.93;;;;;;;6.30;59.89;103116.22;5078701;28;20161;-74
2021/03/02 07:43:24;;;;;;;65.23;32.37;;;;;;;7.06;58.57;103104.69;5078612;28;20408;-75
2021/03/02 07:45:50;;;;;;;48.83;30.63;;;;;;;7.48;56.80;103114.09;5078166;28;20417;-75
2021/03/02 07:48:28;;;;;;;52.93;32.70;;;;;;;8.82;53.23;103108.88;5078220;28;20407;-73
2021/03/02 07:51:15;;;;;;;52.47;30.07;;;;;;;8.62;52.83;103110.34;5078200;28;20570;-73
2021/03/02 07:53:41;;;;;;;49.07;30.53;;;;;;;9.87;50.48;103109.16;5078570;28;20532;-73
2021/03/02 07:56:23;;;;;;;44.77;29.40;;;;;;;10.52;47.41;103104.53;5077624;28;20816;-74
2021/03/02 07:59:10;;;;;;;45.03;30.23;;;;;;;10.59;46.85;103110.94;5077745;28;20172;-74
2021/03/02 08:01:35;;;;;;;43.50;27.60;;;;;;;11.17;44.96;103112.75;5078019;28;20498;-76
2021/03/02 08:04:16;;;;;;;35.00;26.70;;;;;;;11.61;45.22;103112.97;5078262;28;20430;-74
2021/03/02 08:06:42;;;;;;;33.80;27.07;;;;;;;10.74;45.45;103113.38;5078015;28;20176;-75
2021/03/02 08:09:26;;;;;;;39.10;28.03;;;;;;;10.85;45.54;103119.09;5077921;28;20411;-74
2021/03/02 08:11:52;;;;;;;35.90;27.97;;;;;;;11.29;44.15;103125.50;5077659;28;20473;-75
2021/03/02 08:14:17;;;;;;;43.40;31.33;;;;;;;11.71;43.20;103124.72;5078098;28;20413;-75
2021/03/02 08:17:07;;;;;;;42.63;29.70;;;;;;;11.98;42.98;103118.91;5077837;28;20443;-75
2021/03/02 08:19:39;;;;;;;47.07;31.80;;;;;;;11.22;45.65;103128.66;5077930;28;20212;-73
2021/03/02 08:22:17;;;;;;;44.60;31.10;;;;;;;11.29;44.35;103133.31;5076920;28;20442;-72
2021/03/02 08:25:04;;;;;;;40.90;31.90;;;;;;;12.37;42.83;103119.66;5082955;28;20415;-76
2021/03/02 08:27:49;;;;;;;42.77;28.37;;;;;;;11.57;44.16;103130.22;5081948;28;20381;-76
2021/03/02 08:30:15;;;;;;;43.13;32.00;;;;;;;12.67;42.76;103123.44;5081866;28;20421;-75
2021/03/02 08:32:42;;;;;;;38.80;28.90;;;;;;;12.88;40.10;103131.22;5081341;28;20726;-74
2021/03/02 08:35:10;;;;;;;42.80;29.63;;;;;;;12.79;41.22;103124.81;5081570;28;20419;-74
2021/03/02 08:37:45;;;;;;;41.97;29.87;;;;;;;12.57;40.98;103117.84;5082119;28;20672;-74
2021/03/02 08:40:13;;;;;;;41.40;28.10;;;;;;;13.05;40.15;103122.28;5081585;28;20461;-75
2021/03/02 08:43:02;;;;;;;43.53;28.90;;;;;;;13.45;39.73;103121.19;5081233;28;20400;-73
2021/03/02 08:45:33;;;;;;;37.67;27.87;;;;;;;12.28;42.18;103121.91;5081210;28;20397;-73
2021/03/02 08:48:12;;;;;;;36.87;27.57;;;;;;;13.88;39.21;103113.94;5081564;28;20659;-75
2021/03/02 08:50:37;;;;;;;39.33;29.17;;;;;;;13.20;40.47;103118.47;5081247;28;20414;-75
2021/03/02 08:53:02;;;;;;;38.97;26.93;;;;;;;14.08;37.86;103116.31;5081196;28;20463;-75
2021/03/02 08:55:37;;;;;;;37.83;28.40;;;;;;;14.10;38.01;103112.03;5081161;28;20271;-75
2021/03/02 08:58:03;;;;;;;38.17;28.63;;;;;;;14.19;38.55;103109.69;5080981;28;20179;-73
2021/03/02 09:00:29;;;;;;;35.90;26.20;;;;;;;14.25;39.02;103112.53;5080957;28;20768;-75
2021/03/02 09:02:54;;;;;;;34.70;26.53;;;;;;;13.58;39.44;103116.38;5081639;28;20455;-74
2021/03/02 09:05:20;;;;;;;42.57;29.03;;;;;;;14.43;37.75;103113.97;5081583;28;20177;-75
2021/03/02 09:08:03;;;;;;;34.17;27.43;;;;;;;14.90;37.11;103114.56;5081235;28;20275;-74
2021/03/02 09:10:29;;;;;;;38.80;28.13;;;;;;;15.25;35.90;103119.03;5080835;28;20222;-75
2021/03/02 09:12:54;;;;;;;34.00;25.77;;;;;;;15.30;35.55;103120.06;5080954;28;20458;-75
2021/03/02 09:15:19;;;;;;;34.17;27.27;;;;;;;15.49;36.34;103117.13;5080709;28;20183;-76
2021/03/02 09:17:45;;;;;;;41.10;26.83;;;;;;;15.80;34.83;103112.72;5080418;28;20165;-75
2021/03/02 09:20:11;;;;;;;35.03;26.10;;;;;;;16.22;33.54;103118.13;5080828;28;20180;-78
2021/03/02 09:22:36;;;;;;;35.20;28.50;;;;;;;16.57;32.91;103112.81;5080700;28;20424;-80
2021/03/02 09:25:02;;;;;;;35.93;26.80;;;;;;;15.97;34.06;103118.41;5080428;28;20455;-81
2021/03/02 09:27:33;;;;;;;39.07;26.60;;;;;;;14.97;36.06;103123.53;5079903;28;20161;-74
2021/03/02 09:29:58;;;;;;;35.37;28.17;;;;;;;15.59;35.45;103120.88;5080490;28;20429;-73
2021/03/02 09:32:26;;;;;;;36.97;28.57;;;;;;;14.89;35.90;103123.28;5080159;28;20458;-74
2021/03/02 09:35:03;;;;;;;36.73;28.70;;;;;;;15.67;33.83;103118.47;5078680;28;20169;-76
2021/03/02 09:37:29;;;;;;;37.90;29.47;;;;;;;16.57;32.73;103115.44;5080500;28;20414;-76
2021/03/02 09:39:59;;;;;;;34.53;28.37;;;;;;;16.99;32.45;103114.63;5080344;28;20411;-76
2021/03/02 09:42:27;;;;;;;37.90;29.23;;;;;;;16.31;33.12;103110.47;5080713;28;20531;-76
2021/03/02 09:44:54;;;;;;;37.43;29.17;;;;;;;14.89;36.54;103115.41;5080224;28;20429;-73
2021/03/02 09:47:33;;;;;;;35.70;28.20;;;;;;;16.05;33.76;103109.81;5080072;28;20476;-74
2021/03/02 09:50:09;;;;;;;42.00;30.63;;;;;;;16.40;33.43;103112.41;5078310;28;20510;-73
2021/03/02 09:52:40;;;;;;;37.00;30.33;;;;;;;16.20;33.61;103104.06;5079772;28;20490;-72
2021/03/02 09:55:14;;;;;;;38.63;30.07;;;;;;;16.16;33.38;103103.06;5079617;28;20430;-71
2021/03/02 09:57:51;;;;;;;40.17;30.90;;;;;;;16.32;33.30;103099.09;5079592;28;20701;-71
2021/03/02 10:00:22;;;;;;;41.77;29.60;;;;;;;16.78;32.68;103100.13;5080047;28;20422;-73
2021/03/02 10:02:52;;;;;;;39.50;30.77;;;;;;;15.98;33.96;103103.53;5078954;28;20683;-73
2021/03/02 10:05:34;;;;;;;34.03;27.80;;;;;;;16.39;33.96;103098.34;5080064;28;20812;-74
2021/03/02 10:08:23;;;;;;;34.77;27.97;;;;;;;16.30;33.96;103100.78;5079363;28;20415;-73
2021/03/02 10:10:49;;;;;;;40.80;30.13;;;;;;;16.88;32.78;103090.66;5078227;28;20675;-72
2021/03/02 10:13:22;;;;;;;44.63;28.00;;;;;;;16.11;33.76;103094.19;5080728;28;20467;-73
2021/03/02 10:15:47;;;;;;;36.43;29.73;;;;;;;16.45;33.29;103090.63;5079534;28;20418;-73
2021/03/02 10:18:25;;;;;;;35.80;30.20;;;;;;;16.42;33.46;103089.66;5078752;28;20502;-74
2021/03/02 10:21:08;;;;;;;35.33;30.03;;;;;;;16.10;33.90;103090.66;5079278;28;20179;-72
2021/03/02 10:23:37;;;;;;;38.27;31.27;;;;;;;15.72;34.64;103094.91;5079445;28;20517;-73
2021/03/02 10:26:02;;;;;;;36.63;30.33;;;;;;;14.22;38.86;103108.91;5077930;28;20547;-73
2021/03/02 10:28:29;;;;;;;40.13;31.80;;;;;;;15.47;35.81;103104.78;5079302;28;20407;-73
2021/03/02 10:30:54;;;;;;;34.83;30.90;;;;;;;15.34;36.24;103108.81;5079118;28;20177;-73
2021/03/02 10:33:19;;;;;;;39.33;30.50;;;;;;;14.73;37.39;103107.91;5079207;28;20500;-72
2021/03/02 10:35:45;;;;;;;40.13;30.70;;;;;;;13.72;39.97;103108.97;5079168;28;20180;-75
2021/03/02 10:38:10;;;;;;;43.63;32.03;;;;;;;15.66;36.12;103103.53;5079473;28;20246;-72
2021/03/02 10:40:35;;;;;;;42.37;31.40;;;;;;;15.06;36.84;103107.13;5079000;28;20179;-71
2021/03/02 10:43:01;;;;;;;38.33;29.67;;;;;;;15.81;35.78;103098.69;5078703;28;20488;-71
2021/03/02 10:45:26;;;;;;;38.83;28.80;;;;;;;15.84;35.66;103103.16;5078802;28;20164;-73
2021/03/02 10:47:51;;;;;;;41.33;29.27;;;;;;;15.85;35.12;103102.31;5078912;28;20290;-72
2021/03/02 10:50:17;;;;;;;40.60;28.83;;;;;;;15.74;35.50;103104.63;5078770;28;20176;-73
2021/03/02 10:52:42;;;;;;;35.03;27.83;;;;;;;15.94;35.32;103106.91;5078858;28;20423;-73
2021/03/02 10:55:08;;;;;;;34.20;28.20;;;;;;;15.77;36.08;103109.97;5078544;28;20215;-71
2021/03/02 10:57:33;;;;;;;33.67;27.63;;;;;;;15.96;35.64;103115.75;5078642;28;20184;-72
2021/03/02 10:59:58;;;;;;;42.53;28.07;;;;;;;14.30;39.22;103117.91;5078580;28;20548;-72
2021/03/02 11:02:23;;;;;;;33.17;26.60;;;;;;;15.41;37.13;103123.00;5078394;28;20193;-72
2021/03/02 11:04:49;;;;;;;38.00;27.00;;;;;;;14.76;37.99;103119.41;5078570;28;20165;-71
2021/03/02 11:07:14;;;;;;;35.80;27.87;;;;;;;13.69;41.26;103116.75;5078855;28;20176;-72
2021/03/02 11:09:39;;;;;;;36.30;28.50;;;;;;;12.98;43.06;103109.81;5078728;28;20261;-72
2021/03/02 11:12:05;;;;;;;34.63;25.00;;;;;;;12.28;44.75;103119.28;5078318;28;20247;-72
2021/03/02 11:14:30;;;;;;;29.27;24.70;;;;;;;12.45;44.26;103117.34;5078486;28;20256;-73
2021/03/02 11:16:56;;;;;;;30.50;24.20;;;;;;;14.94;39.02;103103.31;5078015;28;20176;-73